Track Макаров Николай

Time Latitude Longitude Accuracy (66% radius in meters) Altitude (meters) Speed (km/hour) Bearing (degrees) Battery (%) GPS flag
08:53:23 60.370975 29.556279 4 76.875562603869 0.1534606218338 51.884819030762 63 1 delete
08:53:14 60.370964 29.556295 6 76.308147032093 0.017720168456435 51.884819030762 63 1 delete
08:53:02 60.370971 29.556291 4 75.727440738645 0.33110481500626 309.83544921875 63 1 delete
08:52:50 60.370960 29.556257 4 76.411779610767 0.096597619354725 337.65795898438 63 1 delete
08:52:44 60.370953 29.556241 4 76.305307435323 0.012765591964126 337.65795898438 63 1 delete
08:52:38 60.370940 29.556257 4 76.255282055249 0.041312247514725 337.65795898438 63 1 delete
08:52:26 60.370910 29.556261 6 76.213177278514 0.022931946441531 337.65795898438 63 1 delete
08:52:17 60.370894 29.556261 6 76.205259544443 0.05847966298461 337.65795898438 63 1 delete
08:52:11 60.370906 29.556251 8 76.19897542037 0.021194066852331 337.65795898438 63 1 delete
08:52:05 60.370930 29.556236 6 76.167077183822 0.014562745578587 337.65795898438 63 1 delete
08:51:56 60.370959 29.556286 6 76.066256461114 0.047635085880756 337.65795898438 63 1 delete
08:51:53 60.370968 29.556291 4 76.047565321785 0.11140317469835 337.65795898438 63 1 delete
08:51:41 60.370992 29.556337 4 76.077830543656 0.016341900452971 337.65795898438 63 1 delete
08:51:29 60.370994 29.556332 4 76.317726801924 0.019202362746 337.65795898438 63 1 delete
08:51:17 60.371028 29.556237 6 76.467425435596 0.045246969908476 337.65795898438 63 1 delete
08:51:08 60.371011 29.556271 4 76.534668779951 0.0555788166821 337.65795898438 63 1 delete
08:51:05 60.371009 29.556314 4 76.571947029012 0.031125446781516 337.65795898438 63 1 delete
08:50:53 60.371014 29.556359 4 76.593511470374 0.02858723513782 337.65795898438 63 1 delete
08:50:44 60.371010 29.556399 4 76.550958072419 0.017410347238183 337.65795898438 63 1 delete
08:50:32 60.371011 29.556388 4 76.462682052121 0.021438222378492 337.65795898438 63 1 delete
08:50:29 60.371009 29.556379 4 76.427924662437 0.029754946008325 337.65795898438 63 1 delete
08:50:20 60.371005 29.556375 4 76.305276555529 0.016780212521553 337.65795898438 63 1 delete
08:50:08 60.371000 29.556371 4 76.143311313539 0.015560145489872 337.65795898438 63 1 delete
08:49:56 60.370995 29.556356 4 76.01774258447 0.034240324050188 337.65795898438 63 1 delete
08:49:47 60.370987 29.556351 4 75.946248982701 0.023584276437759 337.65795898438 63 1 delete
08:49:35 60.370978 29.556342 4 75.878244758514 0.030148591846228 337.65795898438 63 1 delete
08:49:23 60.370978 29.556335 4 75.843390543944 0.0099600721150637 337.65795898438 63 1 delete
08:49:17 60.370973 29.556325 4 75.839967811359 0.01747084595263 337.65795898438 63 1 delete
08:49:11 60.370953 29.556313 4 75.814604825467 0.00875114928931 337.65795898438 63 1 delete
08:48:59 60.370920 29.556411 6 75.721115366701 0.029858505353332 337.65795898438 63 1 delete
08:48:50 60.370938 29.556392 6 75.701794217911 0.02455410733819 337.65795898438 63 1 delete
08:48:38 60.370954 29.556389 6 76.070100440734 0.30729097127914 117.97049713135 63 1 delete
08:48:26 60.370996 29.556415 8 77.589561526821 0.45216476917267 99.77025604248 63 1 delete
08:48:14 60.370994 29.556393 4 76.985374184739 0.048771444708109 243.71351623535 63 1 delete
08:48:02 60.371008 29.556377 6 76.870492619867 0.037875857204199 243.71351623535 63 1 delete
08:47:51 60.370993 29.556360 6 76.820762387612 0.029474940150976 243.71351623535 63 1 delete
08:47:42 60.370991 29.556386 4 76.76975361002 0.08811692148447 243.71351623535 63 1 delete
08:47:30 60.371000 29.556404 4 76.74022855118 0.021614769473672 243.71351623535 63 1 delete
08:47:18 60.371001 29.556440 6 76.752830267164 0.028728479519486 243.71351623535 63 1 delete
08:47:06 60.371005 29.556440 4 76.699620612491 0.017719244584441 243.71351623535 63 1 delete
08:46:54 60.370994 29.556438 6 76.620696517062 0.017850290983915 243.71351623535 63 1 delete
08:46:42 60.370990 29.556433 4 76.594069360043 0.0082154292613268 243.71351623535 63 1 delete
08:46:30 60.370994 29.556433 4 76.498346955364 0.005371205508709 243.71351623535 63 1 delete
08:46:18 60.370981 29.556446 4 76.476154440845 0.019379235804081 243.71351623535 63 1 delete
08:46:06 60.370987 29.556430 4 76.505739589759 0.01336351595819 243.71351623535 63 1 delete
08:45:57 60.370983 29.556418 4 76.488073394988 0.044695187360048 243.71351623535 63 1 delete
08:45:45 60.370975 29.556383 4 76.495489719727 0.021027503535151 243.71351623535 63 1 delete
08:45:36 60.370978 29.556388 4 76.452558103423 0.028865568339825 243.71351623535 63 1 delete
08:45:24 60.370990 29.556371 6 76.449871421712 0.022988894954324 243.71351623535 63 1 delete
08:45:12 60.370966 29.556331 6 76.451527611252 0.017238112166524 243.71351623535 63 1 delete